Time;durP1;ratioP1;P1;durP2;ratioP2;P2;SDS_P1;SDS_P2;PMS_P1;PMS_P2;Temp;Humidity;BMP_temperature;BMP_pressure;BME280_temperature;BME280_humidity;BME280_pressure;Samples;Min_cycle;Max_cycle;Signal;HPM_P1;HPM_P2
2022/10/14 00:01:56;;;;;;;;;;;;;;;23.22;46.40;94488.59;5064571;28;7962;-60
2022/10/14 00:04:26;;;;;;;;;;;;;;;23.19;46.26;94486.84;5067156;28;9200;-60
2022/10/14 00:06:52;;;;;;;;;;;;;;;23.19;46.48;94487.59;5065677;28;7402;-60
2022/10/14 00:09:18;;;;;;;;;;;;;;;23.19;46.33;94493.09;5066359;28;6924;-60
2022/10/14 00:11:44;;;;;;;;;;;;;;;23.20;46.53;94488.34;5043603;28;9015;-60
2022/10/14 00:14:16;;;;;;;;;;;;;;;23.19;46.32;94482.09;5068764;28;7003;-59
2022/10/14 00:16:46;;;;;;;;;;;;;;;23.18;47.06;94480.59;5043069;28;7474;-60
2022/10/14 00:19:16;;;;;;;;;;;;;;;23.17;46.49;94481.84;5070687;28;7352;-59
2022/10/14 00:21:46;;;;;;;;;;;;;;;23.18;46.99;94479.84;5086434;28;7265;-60
2022/10/14 00:24:15;;;;;;;;;;;;;;;23.19;46.57;94479.34;5059072;28;7154;-60
2022/10/14 00:27:19;;;;;;;;;;;;;;;23.18;46.71;94485.34;5056171;28;7020;-60
2022/10/14 00:30:00;;;;;;;;;;;;;;;23.17;46.38;94484.59;4993353;28;7269;-60
2022/10/14 00:32:40;;;;;;;;;;;;;;;23.15;46.64;94478.84;5007014;28;8856;-60
2022/10/14 00:35:16;;;;;;;;;;;;;;;23.17;46.66;94475.59;5009950;28;7468;-60
2022/10/14 00:38:11;;;;;;;;;;;;;;;23.16;46.67;94483.06;5013075;28;6989;-60
2022/10/14 00:40:49;;;;;;;;;;;;;;;23.16;46.64;94479.59;4996365;28;7461;-60
2022/10/14 00:43:15;;;;;;;;;;;;;;;23.16;46.66;94483.06;4997002;28;9105;-60
2022/10/14 00:45:53;;;;;;;;;;;;;;;23.15;46.48;94480.84;5003471;28;8573;-60
2022/10/14 00:48:24;;;;;;;;;;;;;;;23.15;46.26;94478.09;4991815;28;9018;-60
2022/10/14 00:50:55;;;;;;;;;;;;;;;23.14;46.29;94474.59;5010404;28;7028;-61
2022/10/14 00:53:21;;;;;;;;;;;;;;;23.14;47.05;94480.06;5010483;28;7261;-60
2022/10/14 00:56:26;;;;;;;;;;;;;;;23.15;46.28;94478.09;5011684;28;10277;-60
2022/10/14 00:58:52;;;;;;;;;;;;;;;23.13;46.26;94473.09;4953153;28;8632;-60
2022/10/14 01:01:21;;;;;;;;;;;;;;;23.12;46.36;94482.56;4937204;28;8387;-60
2022/10/14 01:03:49;;;;;;;;;;;;;;;23.13;46.54;94481.34;4955475;28;7032;-60
2022/10/14 01:06:30;;;;;;;;;;;;;;;23.12;46.76;94476.31;4973366;28;7657;-60
2022/10/14 01:09:32;;;;;;;;;;;;;;;23.11;46.88;94472.84;4972878;28;9422;-60
2022/10/14 01:12:33;;;;;;;;;;;;;;;23.11;46.71;94470.09;4956709;28;8736;-60
2022/10/14 01:15:13;;;;;;;;;;;;;;;23.11;46.80;94474.84;4957134;28;7911;-61
2022/10/14 01:17:58;;;;;;;;;;;;;;;23.11;46.70;94469.34;4949729;28;7087;-60
2022/10/14 01:21:03;;;;;;;;;;;;;;;23.12;46.38;94466.09;4946850;28;9424;-60
2022/10/14 01:24:18;;;;;;;;;;;;;;;23.11;46.34;94470.09;4972810;28;7379;-61
2022/10/14 01:27:21;;;;;;;;;;;;;;;23.11;46.94;94463.88;4962670;28;8718;-60
2022/10/14 01:30:06;;;;;;;;;;;;;;;23.10;47.10;94452.13;4937763;28;10201;-60
2022/10/14 01:32:54;;;;;;;;;;;;;;;23.11;46.45;94450.91;4984992;28;7112;-61
2022/10/14 01:35:35;;;;;;;;;;;;;;;23.11;46.52;94450.16;5065705;28;7856;-60
2022/10/14 01:38:11;;;;;;;;;;;;;;;23.11;46.70;94447.41;5075494;28;7231;-60
2022/10/14 01:40:54;;;;;;;;;;;;;;;23.10;46.53;94452.13;5049339;28;7260;-60
2022/10/14 01:43:27;;;;;;;;;;;;;;;23.11;46.38;94458.38;5056531;28;9281;-59
2022/10/14 01:45:57;;;;;;;;;;;;;;;23.10;46.45;94449.38;5084326;28;7230;-60
2022/10/14 01:48:32;;;;;;;;;;;;;;;23.11;46.55;94448.16;5067572;28;7070;-61
2022/10/14 01:51:04;;;;;;;;;;;;;;;23.10;46.77;94454.88;5056515;28;7461;-60
2022/10/14 01:53:53;;;;;;;;;;;;;;;23.09;46.62;94447.91;5050058;28;7363;-60
2022/10/14 01:56:33;;;;;;;;;;;;;;;23.10;46.96;94440.41;5066983;28;7430;-60
2022/10/14 01:59:02;;;;;;;;;;;;;;;23.08;46.71;94442.88;5068220;28;7175;-60
2022/10/14 02:01:35;;;;;;;;;;;;;;;23.07;46.91;94435.91;5068155;28;7259;-60
2022/10/14 02:04:01;;;;;;;;;;;;;;;23.08;46.96;94434.66;5044785;28;7250;-60
2022/10/14 02:06:37;;;;;;;;;;;;;;;23.07;46.93;94444.91;5070261;28;9517;-60
2022/10/14 02:09:58;;;;;;;;;;;;;;;23.07;46.97;94439.41;5066835;28;9406;-60
2022/10/14 02:13:06;;;;;;;;;;;;;;;23.06;46.83;94437.91;5013938;28;6985;-60
2022/10/14 02:16:20;;;;;;;;;;;;;;;23.07;46.89;94431.19;5030666;28;8905;-59
2022/10/14 02:18:55;;;;;;;;;;;;;;;23.06;47.03;94428.91;4995470;28;7298;-59
2022/10/14 02:21:42;;;;;;;;;;;;;;;23.06;46.71;94423.44;4994194;28;9119;-59
2022/10/14 02:24:27;;;;;;;;;;;;;;;23.05;46.46;94419.94;5000181;28;7048;-59
2022/10/14 02:26:58;;;;;;;;;;;;;;;23.04;46.94;94423.94;5000794;28;7379;-59
2022/10/14 02:29:37;;;;;;;;;;;;;;;23.04;46.34;94421.19;5001557;28;7397;-59
2022/10/14 02:32:07;;;;;;;;;;;;;;;23.04;46.63;94418.44;4993867;28;7080;-59
2022/10/14 02:34:39;;;;;;;;;;;;;;;23.03;46.60;94419.69;4995170;28;8235;-59
2022/10/14 02:37:17;;;;;;;;;;;;;;;23.06;46.97;94426.16;5009946;28;7317;-59
2022/10/14 02:40:00;;;;;;;;;;;;;;;23.05;46.97;94425.41;4993702;28;7246;-59
2022/10/14 02:42:35;;;;;;;;;;;;;;;23.04;46.70;94425.91;5009590;28;7698;-59
2022/10/14 02:45:01;;;;;;;;;;;;;;;23.05;46.74;94430.91;4990696;28;7349;-59
2022/10/14 02:47:33;;;;;;;;;;;;;;;23.06;46.52;94426.16;5030680;28;7482;-58
2022/10/14 02:49:59;;;;;;;;;;;;;;;23.04;46.69;94418.44;5046473;28;7245;-59
2022/10/14 02:52:25;;;;;;;;;;;;;;;23.05;46.66;94410.97;5048165;28;8738;-59
2022/10/14 02:54:51;;;;;;;;;;;;;;;23.05;46.64;94414.44;5057104;28;8742;-59
2022/10/14 02:57:16;;;;;;;;;;;;;;;23.04;46.49;94412.19;5061939;28;7367;-59
2022/10/14 02:59:45;;;;;;;;;;;;;;;23.02;46.62;94407.22;5071247;28;7238;-60
2022/10/14 03:02:13;;;;;;;;;;;;;;;23.03;46.53;94408.69;5053900;28;9081;-60
2022/10/14 03:04:39;;;;;;;;;;;;;;;23.03;46.81;94405.97;5053290;28;7387;-60
2022/10/14 03:07:10;;;;;;;;;;;;;;;23.02;46.95;94406.47;5068507;28;10218;-60
2022/10/14 03:10:05;;;;;;;;;;;;;;;23.02;46.86;94404.47;5053909;28;9103;-60
2022/10/14 03:12:33;;;;;;;;;;;;;;;23.02;46.78;94400.97;4976688;28;10680;-60
2022/10/14 03:15:04;;;;;;;;;;;;;;;23.01;46.90;94400.22;4960786;28;7049;-60
2022/10/14 03:17:30;;;;;;;;;;;;;;;23.02;46.61;94398.22;4958148;28;7434;-60
2022/10/14 03:19:58;;;;;;;;;;;;;;;23.03;46.57;94394.25;4951532;28;7901;-60
2022/10/14 03:22:33;;;;;;;;;;;;;;;23.02;46.51;94387.25;4988704;28;7001;-60
2022/10/14 03:25:02;;;;;;;;;;;;;;;23.03;46.44;94388.78;4971872;28;9072;-60
2022/10/14 03:27:37;;;;;;;;;;;;;;;23.03;46.67;94386.75;4989399;28;10575;-60
2022/10/14 03:30:08;;;;;;;;;;;;;;;23.03;46.58;94381.28;4984669;28;7545;-60
2022/10/14 03:32:34;;;;;;;;;;;;;;;23.01;46.78;94377.53;4956773;28;7355;-59
2022/10/14 03:35:04;;;;;;;;;;;;;;;23.01;46.60;94372.78;4994056;28;7219;-60
2022/10/14 03:37:35;;;;;;;;;;;;;;;23.01;46.43;94367.31;4952361;28;8411;-60
2022/10/14 03:40:13;;;;;;;;;;;;;;;23.02;46.54;94371.56;4960435;28;7153;-60
2022/10/14 03:42:43;;;;;;;;;;;;;;;23.01;46.30;94375.53;4982226;28;7246;-60
2022/10/14 03:45:16;;;;;;;;;;;;;;;23.00;46.59;94374.03;4972524;28;7047;-59
2022/10/14 03:47:46;;;;;;;;;;;;;;;23.01;46.64;94369.31;4996173;28;7332;-60
2022/10/14 03:50:12;;;;;;;;;;;;;;;23.01;46.11;94363.84;5066325;28;9440;-60
2022/10/14 03:52:39;;;;;;;;;;;;;;;22.99;46.63;94358.81;5050854;28;8731;-60
2022/10/14 03:55:06;;;;;;;;;;;;;;;23.00;46.53;94356.84;5065928;28;9722;-60
2022/10/14 03:57:32;;;;;;;;;;;;;;;22.99;46.89;94352.56;5030637;28;7208;-59
2022/10/14 04:00:00;;;;;;;;;;;;;;;23.00;46.62;94354.84;5051998;28;7123;-60
2022/10/14 04:02:26;;;;;;;;;;;;;;;22.97;47.24;94353.09;5065361;28;7020;-60
2022/10/14 04:04:54;;;;;;;;;;;;;;;22.97;46.81;94355.06;5056553;28;8667;-60
2022/10/14 04:07:20;;;;;;;;;;;;;;;22.98;46.30;94357.34;5057140;28;9198;-60
2022/10/14 04:09:46;;;;;;;;;;;;;;;22.97;46.61;94353.09;5073121;28;7213;-60
2022/10/14 04:12:12;;;;;;;;;;;;;;;22.97;46.96;94355.81;5061152;28;9121;-60
2022/10/14 04:14:41;;;;;;;;;;;;;;;22.95;46.57;94349.31;5064712;28;7025;-60
2022/10/14 04:17:07;;;;;;;;;;;;;;;22.96;46.62;94353.59;5085086;28;7218;-60
2022/10/14 04:19:35;;;;;;;;;;;;;;;22.95;46.51;94352.81;5067713;28;9141;-60
2022/10/14 04:22:13;;;;;;;;;;;;;;;22.97;46.84;94352.31;5056972;28;7853;-60
2022/10/14 04:24:48;;;;;;;;;;;;;;;22.95;47.17;94350.09;5059677;28;7430;-60
2022/10/14 04:27:33;;;;;;;;;;;;;;;22.95;46.99;94350.09;5074319;28;7184;-60
2022/10/14 04:29:59;;;;;;;;;;;;;;;22.95;46.66;94347.34;5047624;28;7250;-60
2022/10/14 04:32:29;;;;;;;;;;;;;;;22.94;46.84;94339.63;5071748;28;7196;-60
2022/10/14 04:35:04;;;;;;;;;;;;;;;22.92;46.77;94340.09;5072883;28;8949;-61
2022/10/14 04:37:36;;;;;;;;;;;;;;;22.94;47.09;94336.88;5039251;28;7212;-61
2022/10/14 04:40:04;;;;;;;;;;;;;;;22.93;46.75;94338.09;5072882;28;7032;-60
2022/10/14 04:42:36;;;;;;;;;;;;;;;22.94;46.75;94334.88;5067433;28;8964;-60
2022/10/14 04:45:09;;;;;;;;;;;;;;;22.95;46.59;94338.34;5058754;28;7132;-60
2022/10/14 04:47:35;;;;;;;;;;;;;;;22.95;46.56;94333.63;5060854;28;7246;-60
2022/10/14 04:50:03;;;;;;;;;;;;;;;22.93;46.74;94322.41;5061853;28;7336;-59
2022/10/14 04:52:29;;;;;;;;;;;;;;;22.96;46.45;94326.16;5066066;28;7318;-60
2022/10/14 04:54:57;;;;;;;;;;;;;;;22.95;46.61;94319.16;5066013;28;6989;-60
2022/10/14 04:57:23;;;;;;;;;;;;;;;22.93;47.02;94316.16;5066521;28;7013;-60
2022/10/14 04:59:49;;;;;;;;;;;;;;;22.92;46.86;94306.47;5052788;28;7030;-60
2022/10/14 05:02:15;;;;;;;;;;;;;;;22.92;46.55;94309.19;5050195;28;7235;-60
2022/10/14 05:04:41;;;;;;;;;;;;;;;22.89;46.61;94297.22;5069430;28;7300;-60
2022/10/14 05:07:11;;;;;;;;;;;;;;;22.92;46.74;94304.44;5048901;28;9679;-60
2022/10/14 05:09:37;;;;;;;;;;;;;;;22.91;46.30;94302.97;5065200;28;8959;-60
2022/10/14 05:12:03;;;;;;;;;;;;;;;22.90;46.80;94298.69;5066330;28;7249;-60
2022/10/14 05:14:29;;;;;;;;;;;;;;;22.90;46.69;94287.00;5051568;28;9123;-60
2022/10/14 05:16:55;;;;;;;;;;;;;;;22.91;46.40;94286.50;5069180;28;7319;-60
2022/10/14 05:19:21;;;;;;;;;;;;;;;22.91;46.79;94291.22;5078010;28;7285;-60
2022/10/14 05:21:51;;;;;;;;;;;;;;;22.90;46.54;94289.75;5052254;28;7395;-60
2022/10/14 05:24:17;;;;;;;;;;;;;;;22.91;46.75;94286.50;5043286;28;7751;-60
2022/10/14 05:26:44;;;;;;;;;;;;;;;22.91;46.34;94285.75;5060823;28;7980;-60
2022/10/14 05:29:13;;;;;;;;;;;;;;;22.89;46.80;94277.25;5077026;28;7197;-60
2022/10/14 05:31:42;;;;;;;;;;;;;;;22.90;46.84;94276.75;5063601;28;9173;-60
2022/10/14 05:34:15;;;;;;;;;;;;;;;22.88;46.71;94265.53;5057505;28;7232;-60
2022/10/14 05:36:43;;;;;;;;;;;;;;;22.89;46.93;94258.81;5052766;28;7216;-60
2022/10/14 05:39:19;;;;;;;;;;;;;;;22.91;46.50;94263.81;5057483;28;9238;-60
2022/10/14 05:41:50;;;;;;;;;;;;;;;22.90;46.84;94265.78;5065548;28;9039;-60
2022/10/14 05:44:20;;;;;;;;;;;;;;;22.88;46.47;94265.53;5067997;28;7151;-60
2022/10/14 05:46:46;;;;;;;;;;;;;;;22.89;46.57;94260.81;5082621;28;7307;-61
2022/10/14 05:49:17;;;;;;;;;;;;;;;22.90;47.03;94265.06;5064608;28;7151;-60
2022/10/14 05:51:49;;;;;;;;;;;;;;;22.88;46.66;94259.34;5071249;28;7745;-60
2022/10/14 05:54:19;;;;;;;;;;;;;;;22.88;47.06;94259.34;5051522;28;9239;-60
2022/10/14 05:56:48;;;;;;;;;;;;;;;22.88;46.56;94249.09;5055402;28;9347;-60
2022/10/14 05:59:14;;;;;;;;;;;;;;;22.87;46.84;94244.88;5052870;28;9495;-60
2022/10/14 06:01:40;;;;;;;;;;;;;;;22.86;46.74;94242.63;5059738;28;7248;-60
2022/10/14 06:04:08;;;;;;;;;;;;;;;22.88;46.41;94259.34;5051548;28;7506;-60
2022/10/14 06:06:33;;;;;;;;;;;;;;;22.87;46.70;94250.34;5057244;28;7278;-60
2022/10/14 06:09:24;;;;;;;;;;;;;;;22.88;46.83;94253.84;5069623;28;8669;-61
2022/10/14 06:12:01;;;;;;;;;;;;;;;22.88;47.13;94257.31;5064586;28;7987;-60
2022/10/14 06:14:58;;;;;;;;;;;;;;;22.87;46.39;94261.31;5060027;28;7271;-60
2022/10/14 06:17:27;;;;;;;;;;;;;;;22.88;46.46;94265.53;5046423;28;7745;-60
2022/10/14 06:19:58;;;;;;;;;;;;;;;22.86;46.50;94259.81;5045069;28;7315;-60
2022/10/14 06:22:40;;;;;;;;;;;;;;;22.87;46.71;94261.31;5033267;28;7260;-60
2022/10/14 06:25:07;;;;;;;;;;;;;;;22.86;46.63;94264.56;5042749;28;7634;-60
2022/10/14 06:27:43;;;;;;;;;;;;;;;22.87;46.91;94266.81;5033882;28;9418;-60
2022/10/14 06:30:12;;;;;;;;;;;;;;;22.89;46.57;94269.03;5023245;28;6974;-60
2022/10/14 06:32:38;;;;;;;;;;;;;;;22.88;47.06;94265.53;5033744;28;7165;-60
2022/10/14 06:35:05;;;;;;;;;;;;;;;22.89;46.56;94267.06;5033138;28;7991;-59
2022/10/14 06:37:33;;;;;;;;;;;;;;;22.84;46.52;94262.28;5018161;28;7233;-60
2022/10/14 06:40:00;;;;;;;;;;;;;;;22.87;46.84;94266.81;5023127;28;8182;-60
2022/10/14 06:42:35;;;;;;;;;;;;;;;22.87;46.77;94269.53;5032877;28;7132;-60
2022/10/14 06:45:05;;;;;;;;;;;;;;;22.87;46.78;94275.03;5041179;28;8973;-59
2022/10/14 06:47:42;;;;;;;;;;;;;;;22.88;46.84;94273.03;5033502;28;9185;-60
2022/10/14 06:50:11;;;;;;;;;;;;;;;22.86;46.34;94273.50;5039876;28;7163;-59
2022/10/14 06:52:47;;;;;;;;;;;;;;;22.86;46.86;94273.50;5029718;28;7041;-60
2022/10/14 06:55:17;;;;;;;;;;;;;;;22.87;46.69;94277.78;5040135;28;7372;-60
2022/10/14 06:57:54;;;;;;;;;;;;;;;22.86;46.70;94272.78;5050894;28;10191;-60
2022/10/14 07:00:20;;;;;;;;;;;;;;;22.87;46.37;94280.50;5063763;28;9334;-60
2022/10/14 07:02:45;;;;;;;;;;;;;;;22.86;46.38;94276.25;5041229;28;7293;-60
2022/10/14 07:05:12;;;;;;;;;;;;;;;22.88;47.25;94278.53;5052041;28;8772;-60
2022/10/14 07:07:38;;;;;;;;;;;;;;;22.86;46.78;94272.78;5059585;28;7059;-60
2022/10/14 07:10:04;;;;;;;;;;;;;;;22.86;46.83;94275.53;5053676;28;6922;-60
2022/10/14 07:12:30;;;;;;;;;;;;;;;22.85;46.54;94283.00;5066138;28;7040;-60
2022/10/14 07:15:00;;;;;;;;;;;;;;;22.84;46.81;94276.00;5067584;28;7404;-60
2022/10/14 07:17:38;;;;;;;;;;;;;;;22.84;46.59;94280.75;5062450;28;7715;-60
2022/10/14 07:20:13;;;;;;;;;;;;;;;22.86;46.82;94295.47;5052137;28;9073;-60
2022/10/14 07:22:41;;;;;;;;;;;;;;;22.87;46.65;94293.47;5057848;28;7622;-60
2022/10/14 07:25:14;;;;;;;;;;;;;;;22.87;46.74;94290.72;5089813;28;7418;-60
2022/10/14 07:27:40;;;;;;;;;;;;;;;22.86;46.54;94289.25;5050639;28;7143;-60
2022/10/14 07:30:10;;;;;;;;;;;;;;;22.87;46.77;94293.47;5062002;28;8507;-60
2022/10/14 07:32:40;;;;;;;;;;;;;;;22.86;46.54;94291.97;5064647;28;7298;-60
2022/10/14 07:35:16;;;;;;;;;;;;;;;22.86;46.96;94289.25;5070292;28;8603;-60
2022/10/14 07:37:45;;;;;;;;;;;;;;;22.84;46.78;94288.97;5059196;28;7954;-60
2022/10/14 07:40:13;;;;;;;;;;;;;;;22.87;46.90;94291.47;5046300;28;7540;-60
2022/10/14 07:42:43;;;;;;;;;;;;;;;22.87;46.77;94296.22;5069762;28;7288;-61
2022/10/14 07:45:17;;;;;;;;;;;;;;;22.86;46.95;94300.94;5050516;28;7046;-60
2022/10/14 07:47:49;;;;;;;;;;;;;;;22.85;46.95;94299.47;5057886;28;7221;-60
2022/10/14 07:50:16;;;;;;;;;;;;;;;22.86;46.98;94308.44;5089866;28;8680;-61
2022/10/14 07:52:42;;;;;;;;;;;;;;;22.85;46.89;94302.19;5046376;28;7077;-60
2022/10/14 07:55:16;;;;;;;;;;;;;;;22.87;46.90;94307.19;5072645;28;7194;-61
2022/10/14 07:57:44;;;;;;;;;;;;;;;22.86;46.57;94311.91;5064793;28;9564;-60
2022/10/14 08:00:11;;;;;;;;;;;;;;;22.86;47.38;94314.66;5065071;28;7119;-61
2022/10/14 08:02:36;;;;;;;;;;;;;;;22.88;45.99;94316.91;5073447;28;7344;-60
2022/10/14 08:05:03;;;;;;;;;;;;;;;22.87;46.91;94318.16;5051227;28;9438;-61
2022/10/14 08:07:42;;;;;;;;;;;;;;;22.88;47.28;94317.66;5067653;28;8774;-60
2022/10/14 08:10:10;;;;;;;;;;;;;;;22.88;46.44;94323.13;5079743;28;7121;-61
2022/10/14 08:12:38;;;;;;;;;;;;;;;22.88;47.16;94316.91;5070958;28;7235;-60
2022/10/14 08:15:07;;;;;;;;;;;;;;;22.88;47.07;94316.91;5068627;28;7239;-60
2022/10/14 08:17:35;;;;;;;;;;;;;;;22.86;46.79;94317.41;5068260;28;8676;-61
2022/10/14 08:20:01;;;;;;;;;;;;;;;22.88;47.07;94314.91;5072085;28;8220;-60
2022/10/14 08:22:35;;;;;;;;;;;;;;;22.89;46.69;94318.41;5051286;28;7259;-61
2022/10/14 08:25:02;;;;;;;;;;;;;;;22.90;46.36;94328.88;5068189;28;7216;-60
2022/10/14 08:27:39;;;;;;;;;;;;;;;22.90;47.04;94315.16;5056957;28;7614;-60
2022/10/14 08:30:09;;;;;;;;;;;;;;;22.88;46.98;94314.91;5057431;28;9287;-61
2022/10/14 08:32:36;;;;;;;;;;;;;;;22.90;46.60;94312.41;5058662;28;7267;-60
2022/10/14 08:35:06;;;;;;;;;;;;;;;22.89;46.67;94313.66;5056160;28;8711;-60
2022/10/14 08:37:38;;;;;;;;;;;;;;;22.91;46.33;94322.16;5049428;28;7269;-60
2022/10/14 08:40:05;;;;;;;;;;;;;;;22.92;46.42;94318.16;5055971;28;7293;-60
2022/10/14 08:43:01;;;;;;;;;;;;;;;22.93;46.49;94322.41;5072593;28;7040;-60
2022/10/14 08:45:44;;;;;;;;;;;;;;;22.96;46.63;94326.16;5063587;28;7037;-60
2022/10/14 08:48:25;;;;;;;;;;;;;;;22.95;46.68;94322.66;5068477;28;7542;-60
2022/10/14 08:51:18;;;;;;;;;;;;;;;22.93;46.49;94316.91;5067058;28;7277;-60
2022/10/14 08:53:50;;;;;;;;;;;;;;;22.94;46.49;94323.16;5039241;28;7815;-60
2022/10/14 08:56:22;;;;;;;;;;;;;;;22.92;46.58;94320.91;5032817;28;7349;-60
2022/10/14 08:58:55;;;;;;;;;;;;;;;22.91;46.79;94327.63;5034254;28;7222;-60
2022/10/14 09:01:23;;;;;;;;;;;;;;;22.91;46.46;94324.91;5048201;28;9050;-60
2022/10/14 09:04:03;;;;;;;;;;;;;;;22.91;46.64;94326.88;5037634;28;7038;-61
2022/10/14 09:06:37;;;;;;;;;;;;;;;22.93;46.78;94332.63;5031993;28;7274;-60
2022/10/14 09:09:18;;;;;;;;;;;;;;;22.92;46.80;94331.13;5043289;28;6978;-60
2022/10/14 09:12:00;;;;;;;;;;;;;;;22.90;46.92;94323.38;5051573;28;8569;-60
2022/10/14 09:14:41;;;;;;;;;;;;;;;22.90;46.79;94328.88;5034437;28;11630;-60
2022/10/14 09:17:26;;;;;;;;;;;;;;;22.91;46.66;94330.38;5049103;28;7027;-60
2022/10/14 09:20:22;;;;;;;;;;;;;;;22.92;46.34;94328.41;5034637;28;7136;-60
2022/10/14 09:22:59;;;;;;;;;;;;;;;22.92;46.40;94320.91;5032907;28;7468;-60
2022/10/14 09:25:48;;;;;;;;;;;;;;;22.93;46.71;94325.16;5033117;28;8714;-60
2022/10/14 09:28:37;;;;;;;;;;;;;;;22.95;46.71;94313.69;5025408;28;7596;-61
2022/10/14 09:31:14;;;;;;;;;;;;;;;22.93;46.69;94313.41;5032963;28;9602;-61
2022/10/14 09:33:45;;;;;;;;;;;;;;;22.94;46.81;94309.44;5071505;28;7324;-60
2022/10/14 09:36:20;;;;;;;;;;;;;;;22.93;46.92;94311.44;5068265;28;6994;-60
2022/10/14 09:38:54;;;;;;;;;;;;;;;22.91;47.26;94313.94;5068055;28;7501;-60
2022/10/14 09:41:48;;;;;;;;;;;;;;;22.92;47.21;94306.47;5054218;28;7222;-61
2022/10/14 09:44:24;;;;;;;;;;;;;;;22.93;46.95;94305.94;5008758;28;8764;-60
2022/10/14 09:46:59;;;;;;;;;;;;;;;22.93;47.42;94305.94;5000725;28;8789;-60
2022/10/14 09:49:41;;;;;;;;;;;;;;;22.92;46.63;94303.72;5001549;28;7298;-60
2022/10/14 09:52:24;;;;;;;;;;;;;;;22.91;46.72;94297.47;5026877;28;7340;-60
2022/10/14 09:55:17;;;;;;;;;;;;;;;22.92;46.88;94301.69;5006584;28;7251;-60
2022/10/14 09:58:05;;;;;;;;;;;;;;;22.91;46.86;94302.97;4995361;28;6873;-60
2022/10/14 10:00:35;;;;;;;;;;;;;;;22.92;47.18;94303.72;5011537;28;7248;-60
2022/10/14 10:03:01;;;;;;;;;;;;;;;22.92;47.28;94295.47;4995525;28;7005;-60
2022/10/14 10:05:32;;;;;;;;;;;;;;;22.91;47.27;94291.97;5003826;28;6987;-60
2022/10/14 10:08:20;;;;;;;;;;;;;;;22.91;47.23;94286.50;5030442;28;9989;-60
2022/10/14 10:11:27;;;;;;;;;;;;;;;22.91;47.23;94283.00;5028672;28;8425;-60
2022/10/14 10:14:23;;;;;;;;;;;;;;;22.90;47.21;94282.25;4964904;28;7892;-60
2022/10/14 10:17:28;;;;;;;;;;;;;;;22.88;47.23;94278.53;4944719;28;7363;-60
2022/10/14 10:20:17;;;;;;;;;;;;;;;22.87;47.40;94279.75;4922297;29;7365;-60
2022/10/14 10:22:43;;;;;;;;;;;;;;;22.87;47.34;94280.50;4937846;28;7182;-60
2022/10/14 10:25:09;;;;;;;;;;;;;;;22.88;47.38;94273.78;4950857;28;7281;-60
2022/10/14 10:27:39;;;;;;;;;;;;;;;22.86;47.79;94275.53;4951246;28;7049;-60
2022/10/14 10:30:31;;;;;;;;;;;;;;;22.85;47.43;94271.28;4951313;28;9461;-59
2022/10/14 10:33:23;;;;;;;;;;;;;;;22.88;46.98;94264.81;4962083;28;8749;-60
2022/10/14 10:36:03;;;;;;;;;;;;;;;22.87;46.92;94269.53;4952312;28;9136;-60
2022/10/14 10:39:09;;;;;;;;;;;;;;;22.86;47.50;94273.50;4951273;28;7594;-61
2022/10/14 10:42:21;;;;;;;;;;;;;;;22.87;47.31;94268.78;4931139;29;7136;-61
2022/10/14 10:45:14;;;;;;;;;;;;;;;22.88;47.47;94271.03;4857360;29;9140;-60
2022/10/14 10:47:51;;;;;;;;;;;;;;;22.86;47.57;94270.06;4857247;29;7860;-61
2022/10/14 10:51:12;;;;;;;;;;;;;;;22.88;47.20;94270.31;4903785;28;7575;-60
2022/10/14 10:53:50;;;;;;;;;;;;;;;22.89;47.37;94269.03;4934759;28;9170;-60
2022/10/14 10:56:34;;;;;;;;;;;;;;;22.88;47.33;94262.06;4929075;29;8938;-60
2022/10/14 10:59:15;;;;;;;;;;;;;;;22.89;47.45;94261.56;4936144;28;7257;-61
2022/10/14 11:02:12;;;;;;;;;;;;;;;22.90;46.95;94263.06;4912242;28;8943;-60
2022/10/14 11:05:14;;;;;;;;;;;;;;;22.91;47.31;94259.06;4928819;29;7361;-60
2022/10/14 11:13:55;;;;;;;;;;;;;;;22.93;47.03;94255.81;4837909;29;7233;-60
2022/10/14 11:16:49;;;;;;;;;;;;;;;22.90;46.98;94252.06;4852920;29;7210;-60
2022/10/14 11:19:41;;;;;;;;;;;;;;;22.95;47.19;94251.34;4823068;29;8760;-60
2022/10/14 11:22:44;;;;;;;;;;;;;;;22.97;47.03;94235.16;4895272;29;7688;-60
2022/10/14 11:25:21;;;;;;;;;;;;;;;22.97;47.15;94239.88;4904968;29;7240;-61
2022/10/14 11:28:08;;;;;;;;;;;;;;;22.95;47.40;94234.91;4950351;28;9460;-60
2022/10/14 11:31:12;;;;;;;;;;;;;;;22.96;47.38;94239.16;4970927;28;9053;-60
2022/10/14 11:34:16;;;;;;;;;;;;;;;22.98;47.58;94241.38;4937378;29;9556;-60
2022/10/14 11:37:03;;;;;;;;;;;;;;;22.98;47.59;94244.13;4935289;29;6990;-60
2022/10/14 11:39:54;;;;;;;;;;;;;;;22.99;47.02;94240.88;4952347;28;7248;-60
2022/10/14 11:42:42;;;;;;;;;;;;;;;22.99;47.08;94240.13;4935219;29;9309;-60
2022/10/14 11:45:26;;;;;;;;;;;;;;;22.97;47.63;94240.63;4977433;28;8751;-60
2022/10/14 11:48:08;;;;;;;;;;;;;;;22.97;47.39;94248.84;4985059;28;9076;-60
2022/10/14 11:50:50;;;;;;;;;;;;;;;22.96;47.44;94246.63;4986188;28;7184;-60
2022/10/14 11:53:43;;;;;;;;;;;;;;;23.00;47.97;94238.88;5009320;28;7426;-60
2022/10/14 11:56:44;;;;;;;;;;;;;;;22.99;47.05;94223.66;5008905;28;7440;-60
2022/10/14 11:59:40;;;;;;;;;;;;;;;23.00;47.20;94219.69;4953612;28;7354;-61
2022/10/14 12:02:43;;;;;;;;;;;;;;;23.01;47.47;94219.19;4972287;28;7170;-60
2022/10/14 12:05:21;;;;;;;;;;;;;;;23.00;47.32;94219.69;4963355;28;9071;-60
2022/10/14 12:08:36;;;;;;;;;;;;;;;23.01;46.87;94210.97;4972217;28;7231;-60
2022/10/14 12:11:23;;;;;;;;;;;;;;;23.02;47.44;94214.47;4969418;28;7244;-60
2022/10/14 12:14:31;;;;;;;;;;;;;;;22.99;47.42;94215.44;4953680;28;8702;-60
2022/10/14 12:17:17;;;;;;;;;;;;;;;23.01;47.18;94208.22;4957695;28;7476;-60
2022/10/14 12:20:28;;;;;;;;;;;;;;;23.04;47.27;94207.22;4989864;28;10001;-60
2022/10/14 12:23:12;;;;;;;;;;;;;;;23.02;47.12;94203.47;4957166;28;7224;-60
2022/10/14 12:26:02;;;;;;;;;;;;;;;23.02;47.14;94196.00;4955854;28;8611;-60
2022/10/14 12:28:30;;;;;;;;;;;;;;;23.02;47.11;94204.25;4952276;28;7234;-60
2022/10/14 12:31:27;;;;;;;;;;;;;;;23.02;47.52;94198.75;4988035;28;7138;-61
2022/10/14 12:34:25;;;;;;;;;;;;;;;23.04;47.18;94204.50;4955594;28;7248;-60
2022/10/14 12:36:55;;;;;;;;;;;;;;;23.03;46.95;94208.47;4967020;28;7573;-60
2022/10/14 12:39:30;;;;;;;;;;;;;;;23.02;47.58;94198.75;4989809;28;7275;-60
2022/10/14 12:42:33;;;;;;;;;;;;;;;23.04;47.11;94190.78;4992696;28;7282;-60
2022/10/14 12:45:14;;;;;;;;;;;;;;;23.05;46.90;94177.81;5003095;28;8457;-61
2022/10/14 12:48:18;;;;;;;;;;;;;;;23.06;47.13;94193.75;4991148;28;7223;-60
2022/10/14 12:50:48;;;;;;;;;;;;;;;23.06;47.06;94184.78;4971099;28;8499;-60
2022/10/14 12:53:30;;;;;;;;;;;;;;;23.08;46.99;94176.78;4979281;28;7457;-60
2022/10/14 12:56:10;;;;;;;;;;;;;;;23.09;46.74;94176.31;4985305;28;10195;-61
2022/10/14 12:59:00;;;;;;;;;;;;;;;23.09;47.41;94173.56;4967164;28;8716;-60
2022/10/14 13:01:27;;;;;;;;;;;;;;;23.10;47.19;94166.06;4975495;28;8616;-60
2022/10/14 13:04:13;;;;;;;;;;;;;;;23.09;47.06;94170.06;4967423;28;7331;-60
2022/10/14 13:06:41;;;;;;;;;;;;;;;23.06;47.29;94160.84;4975939;28;7557;-60
2022/10/14 13:09:14;;;;;;;;;;;;;;;23.09;47.34;94151.63;4996556;28;9404;-60
2022/10/14 13:12:19;;;;;;;;;;;;;;;23.10;47.32;94144.88;4989639;28;7369;-60
2022/10/14 13:15:00;;;;;;;;;;;;;;;23.11;47.53;94151.13;4957067;28;9195;-61
2022/10/14 13:17:41;;;;;;;;;;;;;;;23.11;47.11;94146.38;4963435;28;7223;-59
2022/10/14 13:20:34;;;;;;;;;;;;;;;23.12;47.28;94147.88;4969747;28;7377;-60
2022/10/14 13:23:51;;;;;;;;;;;;;;;23.12;47.06;94134.16;4955725;28;7246;-60
2022/10/14 13:26:32;;;;;;;;;;;;;;;23.11;47.20;94140.91;4952856;28;7195;-60
2022/10/14 13:29:13;;;;;;;;;;;;;;;23.10;46.83;94133.16;5008597;28;9160;-61
2022/10/14 13:32:07;;;;;;;;;;;;;;;23.10;47.21;94133.91;4961576;28;9309;-60
2022/10/14 13:35:06;;;;;;;;;;;;;;;23.10;47.18;94139.38;4990780;28;7200;-60
2022/10/14 13:37:40;;;;;;;;;;;;;;;23.10;47.15;94136.66;4969795;28;8505;-60
2022/10/14 13:40:19;;;;;;;;;;;;;;;23.11;47.33;94140.91;4952855;28;7127;-60
2022/10/14 13:43:21;;;;;;;;;;;;;;;23.11;47.30;94137.41;4952587;28;8206;-60
2022/10/14 13:46:05;;;;;;;;;;;;;;;23.12;47.19;94142.38;4927917;28;6997;-60
2022/10/14 13:48:50;;;;;;;;;;;;;;;23.11;46.87;94149.13;4946040;28;7802;-61
2022/10/14 13:51:24;;;;;;;;;;;;;;;23.12;46.84;94147.88;4984920;28;7024;-60
2022/10/14 13:53:55;;;;;;;;;;;;;;;23.10;46.85;94147.63;5009200;28;9055;-60
2022/10/14 13:56:25;;;;;;;;;;;;;;;23.10;47.05;94161.34;4990642;28;7188;-60
2022/10/14 13:59:01;;;;;;;;;;;;;;;23.11;47.26;94154.63;5011622;28;7166;-60